Time;durP1;ratioP1;P1;durP2;ratioP2;P2;SDS_P1;SDS_P2;PMS_P1;PMS_P2;Temp;Humidity;BMP_temperature;BMP_pressure;BME280_temperature;BME280_humidity;BME280_pressure;Samples;Min_cycle;Max_cycle;Signal;HPM_P1;HPM_P2
2022/05/29 00:01:46;;;;;;;3.72;2.67;;;;;;;14.84;62.24;98406.75;4993965;27;104207;-69
2022/05/29 00:04:14;;;;;;;5.07;2.95;;;;;;;14.94;62.32;98410.22;5002609;27;103077;-69
2022/05/29 00:06:44;;;;;;;4.43;2.70;;;;;;;14.86;62.70;98407.44;5010595;28;104003;-69
2022/05/29 00:09:16;;;;;;;4.63;2.97;;;;;;;14.46;64.94;98400.53;4986276;28;104157;-69
2022/05/29 00:11:44;;;;;;;3.90;2.90;;;;;;;14.79;63.33;98407.16;5007061;28;104558;-69
2022/05/29 00:14:12;;;;;;;4.57;3.13;;;;;;;14.75;64.02;98403.13;5000864;27;103099;-69
2022/05/29 00:16:40;;;;;;;4.27;3.13;;;;;;;14.85;63.64;98400.47;5003031;27;102723;-70
2022/05/29 00:19:10;;;;;;;4.40;3.00;;;;;;;14.60;64.63;98393.09;4986909;28;104492;-69
2022/05/29 00:21:38;;;;;;;4.10;3.08;;;;;;;14.83;63.18;98402.41;5005377;27;102981;-69
2022/05/29 00:24:08;;;;;;;2.95;2.38;;;;;;;14.90;63.60;98400.88;5003804;27;103051;-69
2022/05/29 00:26:36;;;;;;;4.60;3.13;;;;;;;14.88;64.02;98395.66;5007235;28;103890;-69
2022/05/29 00:29:04;;;;;;;4.35;2.83;;;;;;;14.75;64.18;98399.63;5004882;27;103399;-69
2022/05/29 00:31:32;;;;;;;4.03;2.50;;;;;;;14.79;62.95;98395.72;5013008;28;103166;-69
2022/05/29 00:34:00;;;;;;;3.05;2.40;;;;;;;14.79;62.73;98395.72;5010670;27;102683;-69
2022/05/29 00:36:34;;;;;;;2.83;2.30;;;;;;;14.90;61.86;98388.41;5005986;28;103882;-69
2022/05/29 00:39:03;;;;;;;3.30;2.13;;;;;;;15.01;61.06;98392.69;5009176;27;103698;-69
2022/05/29 00:41:34;;;;;;;2.10;1.40;;;;;;;14.88;61.07;98387.69;5014100;27;103038;-69
2022/05/29 00:44:13;;;;;;;2.55;1.45;;;;;;;14.96;60.16;98384.31;5010553;27;102679;-69
2022/05/29 00:46:45;;;;;;;2.30;1.60;;;;;;;14.97;60.43;98381.50;5013392;27;104271;-69
2022/05/29 00:49:17;;;;;;;2.47;1.40;;;;;;;15.06;60.53;98385.13;5007805;27;104096;-69
2022/05/29 00:51:51;;;;;;;2.67;1.60;;;;;;;14.91;60.88;98378.56;5004024;27;103189;-69
2022/05/29 00:54:19;;;;;;;1.87;1.53;;;;;;;15.03;60.12;98391.56;5003999;27;103064;-69
2022/05/29 00:56:48;;;;;;;1.90;1.50;;;;;;;15.11;59.66;98374.88;5013133;27;103312;-69
2022/05/29 00:59:21;;;;;;;2.37;1.37;;;;;;;15.22;59.96;98372.00;5007941;27;103247;-70
2022/05/29 01:01:50;;;;;;;1.80;1.40;;;;;;;15.27;60.28;98375.06;5005064;27;103195;-69
2022/05/29 01:04:21;;;;;;;2.33;1.55;;;;;;;15.31;60.60;98370.28;5007802;28;102685;-69
2022/05/29 01:06:52;;;;;;;2.85;2.30;;;;;;;14.73;63.08;98369.69;5008502;27;102577;-70
2022/05/29 01:09:20;;;;;;;3.65;2.17;;;;;;;14.84;63.12;98369.53;5003437;28;103576;-69
2022/05/29 01:12:00;;;;;;;2.65;1.80;;;;;;;14.98;62.43;98369.91;4987776;28;104107;-70
2022/05/29 01:14:37;;;;;;;3.90;2.20;;;;;;;15.11;61.57;98364.22;5006376;27;102625;-69
2022/05/29 01:17:17;;;;;;;2.92;1.95;;;;;;;14.83;62.84;98370.50;5008574;27;104202;-69
2022/05/29 01:20:14;;;;;;;2.42;1.80;;;;;;;14.95;62.43;98364.88;5008690;27;104281;-69
2022/05/29 01:23:14;;;;;;;2.55;1.80;;;;;;;14.53;63.45;98363.59;5005584;27;103227;-69
2022/05/29 01:26:11;;;;;;;2.87;1.60;;;;;;;14.56;61.31;98357.16;4975487;27;102666;-69
2022/05/29 01:28:47;;;;;;;3.40;2.00;;;;;;;14.48;60.18;98358.69;5005185;27;103919;-70
2022/05/29 01:31:30;;;;;;;2.20;1.60;;;;;;;14.83;60.25;98360.69;5005970;27;103274;-69
2022/05/29 01:34:01;;;;;;;3.13;1.73;;;;;;;14.27;58.67;98358.00;5010546;27;103161;-69
2022/05/29 01:36:35;;;;;;;2.97;1.73;;;;;;;14.34;58.37;98353.81;4988882;27;102767;-69
2022/05/29 01:39:10;;;;;;;2.78;1.50;;;;;;;14.65;57.45;98348.31;5007461;27;103567;-69
2022/05/29 01:41:44;;;;;;;2.10;1.33;;;;;;;14.90;56.49;98337.03;5008152;27;103618;-69
2022/05/29 01:44:19;;;;;;;2.65;1.40;;;;;;;14.60;57.25;98337.25;5014345;27;103198;-69
2022/05/29 01:46:52;;;;;;;2.42;1.60;;;;;;;14.61;57.86;98334.47;5004308;28;102805;-69
2022/05/29 01:49:23;;;;;;;2.88;1.40;;;;;;;14.45;57.86;98334.25;5003872;27;103648;-69
2022/05/29 01:51:56;;;;;;;2.03;1.45;;;;;;;14.50;57.58;98331.97;5003272;27;103438;-70
2022/05/29 01:54:29;;;;;;;1.95;1.38;;;;;;;14.44;57.65;98328.09;5004666;27;103124;-69
2022/05/29 01:57:02;;;;;;;3.08;1.50;;;;;;;14.33;57.24;98328.25;5005002;27;102625;-69
2022/05/29 01:59:38;;;;;;;3.80;1.53;;;;;;;14.14;57.89;98324.75;5008367;27;103777;-69
2022/05/29 02:02:10;;;;;;;1.95;1.27;;;;;;;14.49;56.62;98319.66;4985365;28;104420;-69
2022/05/29 02:04:41;;;;;;;2.60;1.20;;;;;;;14.67;56.97;98311.78;4985758;28;104228;-69
2022/05/29 02:10:04;;;;;;;1.98;1.60;;;;;;;14.31;59.19;98311.59;5008671;28;102588;-69
2022/05/29 02:12:32;;;;;;;2.28;1.30;;;;;;;14.28;59.43;98311.88;5004285;27;103980;-69
2022/05/29 02:15:08;;;;;;;2.38;1.30;;;;;;;14.11;59.49;98303.78;4992732;27;104248;-69
2022/05/29 02:17:40;;;;;;;2.67;1.40;;;;;;;14.14;59.68;98304.34;5004016;27;102726;-69
2022/05/29 02:20:13;;;;;;;1.20;1.05;;;;;;;14.32;58.80;98300.00;5005948;27;102698;-69
2022/05/29 02:22:43;;;;;;;2.13;1.45;;;;;;;14.25;58.58;98295.38;5010951;27;103976;-69
2022/05/29 02:25:15;;;;;;;2.35;1.48;;;;;;;14.28;58.25;98293.28;5009828;27;103277;-69
2022/05/29 02:27:50;;;;;;;1.45;1.02;;;;;;;14.38;57.77;98294.09;5007527;27;102678;-69
2022/05/29 02:30:19;;;;;;;2.47;1.40;;;;;;;13.76;59.50;98299.06;5005376;27;103923;-69
2022/05/29 02:32:56;;;;;;;2.50;1.33;;;;;;;13.69;60.09;98298.78;5004162;27;104029;-69
2022/05/29 02:35:33;;;;;;;2.45;1.35;;;;;;;13.85;59.96;98303.53;5004293;27;103259;-69
2022/05/29 02:38:08;;;;;;;1.30;0.95;;;;;;;14.13;58.48;98300.00;5005850;27;102653;-69
2022/05/29 02:40:45;;;;;;;1.63;1.00;;;;;;;14.27;57.73;98283.63;5007019;27;104074;-69
2022/05/29 02:43:20;;;;;;;2.30;1.40;;;;;;;14.29;57.99;98283.47;5003753;28;103225;-69
2022/05/29 02:45:55;;;;;;;1.90;1.30;;;;;;;14.36;58.26;98281.94;5004231;28;103212;-69
2022/05/29 02:48:31;;;;;;;3.38;1.60;;;;;;;13.71;59.02;98290.69;4986978;28;102898;-69
2022/05/29 02:51:04;;;;;;;3.17;1.52;;;;;;;14.08;58.06;98283.66;5006678;27;103907;-69
2022/05/29 02:53:34;;;;;;;1.67;1.08;;;;;;;14.30;57.41;98287.81;5001986;27;103291;-69
2022/05/29 02:56:06;;;;;;;1.70;1.23;;;;;;;14.36;57.17;98284.59;5007216;28;103190;-69
2022/05/29 02:58:35;;;;;;;2.10;1.10;;;;;;;14.44;57.81;98279.41;5009842;27;102804;-69
2022/05/29 03:01:18;;;;;;;2.72;1.40;;;;;;;14.49;57.62;98275.31;5002823;27;102979;-69
2022/05/29 03:04:03;;;;;;;3.10;1.40;;;;;;;14.26;59.63;98271.31;5003806;27;103768;-69
2022/05/29 03:06:46;;;;;;;2.75;1.80;;;;;;;13.92;60.40;98272.78;5002057;27;103197;-69
2022/05/29 03:09:34;;;;;;;3.20;1.60;;;;;;;13.87;60.52;98275.00;5006320;27;103047;-69
2022/05/29 03:12:05;;;;;;;3.50;1.50;;;;;;;14.07;59.82;98268.69;4989578;27;103000;-69
2022/05/29 03:14:42;;;;;;;2.58;1.58;;;;;;;14.16;58.85;98272.31;5010552;27;103250;-69
2022/05/29 03:17:21;;;;;;;2.15;1.50;;;;;;;13.92;58.89;98275.44;4990267;27;104208;-69
2022/05/29 03:19:58;;;;;;;2.67;1.52;;;;;;;13.85;58.86;98271.66;5009203;27;102873;-69
2022/05/29 03:22:39;;;;;;;2.47;1.42;;;;;;;14.05;59.42;98270.66;5005718;27;102686;-69
2022/05/29 03:25:14;;;;;;;3.40;1.70;;;;;;;14.15;58.66;98263.50;5009059;27;103955;-69
2022/05/29 03:27:45;;;;;;;2.40;1.47;;;;;;;14.15;58.80;98266.16;5002770;27;103138;-69
2022/05/29 03:30:17;;;;;;;1.90;1.40;;;;;;;14.29;57.89;98265.69;5004835;27;102910;-69
2022/05/29 03:32:49;;;;;;;3.58;1.70;;;;;;;14.24;57.64;98273.28;4991338;28;103805;-69
2022/05/29 03:35:20;;;;;;;1.42;1.20;;;;;;;14.34;57.70;98274.09;5004983;27;103221;-69
2022/05/29 03:37:49;;;;;;;2.90;1.50;;;;;;;14.23;58.89;98271.59;5004329;28;103156;-69
2022/05/29 03:40:17;;;;;;;2.35;1.42;;;;;;;14.38;58.13;98272.00;5002385;27;102654;-69
2022/05/29 03:42:45;;;;;;;2.47;1.60;;;;;;;14.35;58.11;98270.47;4997968;28;104025;-69
2022/05/29 03:45:14;;;;;;;2.17;1.37;;;;;;;14.39;57.52;98271.88;5002550;28;103598;-69
2022/05/29 03:47:42;;;;;;;2.15;1.60;;;;;;;13.35;59.57;98268.31;5005827;27;103331;-69
2022/05/29 03:50:16;;;;;;;3.70;1.77;;;;;;;13.33;59.54;98260.47;4983666;28;102649;-69
2022/05/29 03:52:44;;;;;;;3.10;1.70;;;;;;;13.01;60.87;98265.16;5009123;27;102634;-69
2022/05/29 03:55:13;;;;;;;2.50;1.70;;;;;;;13.09;61.11;98270.66;4985614;28;104303;-69
2022/05/29 03:57:41;;;;;;;2.20;1.53;;;;;;;12.95;61.32;98271.00;4990041;28;104400;-69
2022/05/29 04:00:11;;;;;;;3.25;1.70;;;;;;;13.32;60.65;98273.91;5003307;27;102878;-69
2022/05/29 04:02:40;;;;;;;4.55;1.50;;;;;;;13.56;59.82;98268.19;5009301;27;102820;-68
2022/05/29 04:05:09;;;;;;;3.00;1.50;;;;;;;13.05;60.77;98269.19;5002840;27;103918;-70
2022/05/29 04:13:11;;;;;;;3.58;1.88;;;;;;;11.73;68.58;98264.00;5007005;28;102627;-70
2022/05/29 04:15:45;;;;;;;3.30;1.80;;;;;;;11.73;70.82;98258.72;5007811;27;103298;-71
2022/05/29 04:18:14;;;;;;;3.20;2.00;;;;;;;11.76;73.04;98262.91;5011843;27;103188;-71
2022/05/29 04:20:42;;;;;;;4.87;2.23;;;;;;;12.39;71.48;98260.06;5009847;27;102954;-71
2022/05/29 04:23:12;;;;;;;3.17;1.90;;;;;;;11.35;74.14;98263.66;4991984;28;103686;-71
2022/05/29 04:25:40;;;;;;;3.97;2.13;;;;;;;11.42;74.72;98263.03;5009249;27;103232;-71
2022/05/29 04:28:08;;;;;;;2.10;1.50;;;;;;;12.32;72.04;98263.38;5005502;27;103256;-70
2022/05/29 04:30:35;;;;;;;5.75;2.00;;;;;;;12.73;68.23;98263.28;5007591;27;102668;-70
2022/05/29 04:33:03;;;;;;;2.95;2.10;;;;;;;11.67;70.52;98261.84;5008082;27;104212;-71
2022/05/29 04:35:36;;;;;;;1.73;1.13;;;;;;;12.56;69.39;98269.19;5008467;27;104170;-70
2022/05/29 04:38:06;;;;;;;2.85;1.50;;;;;;;13.03;69.13;98278.28;4992875;28;104406;-70
2022/05/29 04:40:37;;;;;;;1.70;1.20;;;;;;;13.21;69.71;98264.25;5009199;28;104458;-70
2022/05/29 04:43:05;;;;;;;3.80;1.80;;;;;;;13.15;70.68;98275.41;4989574;28;103040;-70
2022/05/29 04:45:34;;;;;;;3.15;1.90;;;;;;;13.15;71.51;98274.56;5008849;28;104205;-71
2022/05/29 04:48:01;;;;;;;2.87;1.80;;;;;;;13.14;72.08;98271.06;5007084;27;103371;-70
2022/05/29 04:50:29;;;;;;;3.05;1.95;;;;;;;13.15;72.78;98283.38;5005739;28;102793;-70
2022/05/29 04:52:57;;;;;;;5.30;2.15;;;;;;;12.87;73.20;98277.97;5002415;27;102748;-70
2022/05/29 04:55:25;;;;;;;3.72;2.20;;;;;;;12.58;73.36;98283.16;5000588;27;103307;-70
2022/05/29 04:57:54;;;;;;;2.92;2.10;;;;;;;12.04;74.13;98276.31;5010697;27;104223;-71
2022/05/29 05:00:22;;;;;;;1.88;1.40;;;;;;;12.64;72.37;98272.03;5008671;27;103006;-70
2022/05/29 05:02:50;;;;;;;5.13;1.77;;;;;;;12.97;70.80;98269.06;5008824;27;104208;-71
2022/05/29 05:05:18;;;;;;;1.80;1.50;;;;;;;13.08;71.69;98271.63;5008258;27;103762;-71
2022/05/29 05:07:48;;;;;;;3.13;2.00;;;;;;;13.13;70.88;98265.94;5003967;27;104236;-71
2022/05/29 05:10:19;;;;;;;3.30;1.80;;;;;;;13.21;71.65;98266.91;5004079;28;102957;-71
2022/05/29 05:12:47;;;;;;;1.60;1.40;;;;;;;13.39;70.63;98264.41;5005589;27;104324;-71
2022/05/29 05:15:17;;;;;;;2.53;1.70;;;;;;;13.26;71.14;98269.16;5006601;27;104637;-76
2022/05/29 05:17:45;;;;;;;2.83;1.92;;;;;;;12.98;69.40;98268.09;5010174;27;105331;-80
2022/05/29 05:20:13;;;;;;;2.60;1.45;;;;;;;13.17;69.35;98260.19;5013409;27;102697;-76
2022/05/29 05:22:42;;;;;;;2.50;1.65;;;;;;;13.15;69.82;98262.16;5007417;27;103987;-76
2022/05/29 05:25:11;;;;;;;3.43;1.80;;;;;;;13.30;68.74;98255.44;5020226;27;104000;-76
2022/05/29 05:27:39;;;;;;;2.97;1.95;;;;;;;12.76;72.49;98257.72;4975071;27;103185;-76
2022/05/29 05:30:08;;;;;;;3.47;1.80;;;;;;;13.22;70.04;98257.16;5002097;27;102835;-77
2022/05/29 05:32:37;;;;;;;3.35;1.80;;;;;;;13.39;70.48;98258.28;5012686;27;102578;-76
2022/05/29 05:35:07;;;;;;;4.10;2.10;;;;;;;13.40;70.70;98265.25;5008820;27;103522;-76
2022/05/29 05:37:36;;;;;;;2.88;1.50;;;;;;;13.92;68.94;98256.84;5016612;27;103183;-79
2022/05/29 05:40:06;;;;;;;3.17;1.90;;;;;;;14.02;67.95;98262.13;5015974;27;102711;-77
2022/05/29 05:42:34;;;;;;;1.90;1.35;;;;;;;13.90;67.27;98264.09;5010785;27;104012;-77
2022/05/29 05:45:02;;;;;;;2.85;1.60;;;;;;;13.90;65.10;98264.09;5016983;27;103866;-76
2022/05/29 05:47:30;;;;;;;1.65;1.15;;;;;;;13.92;64.69;98264.81;5008018;27;103196;-76
2022/05/29 05:49:59;;;;;;;3.30;1.80;;;;;;;12.68;68.53;98273.44;5014127;27;102956;-75
2022/05/29 05:52:27;;;;;;;3.20;1.67;;;;;;;12.46;68.81;98268.34;5012049;27;103838;-76
2022/05/29 05:54:55;;;;;;;4.33;1.70;;;;;;;12.62;67.70;98269.53;5007291;28;103456;-74
2022/05/29 05:57:23;;;;;;;3.20;1.70;;;;;;;12.78;68.29;98269.00;5012885;27;105266;-76
2022/05/29 05:59:51;;;;;;;2.55;1.60;;;;;;;13.32;65.33;98269.44;4997944;27;102747;-78
2022/05/29 06:02:19;;;;;;;3.17;1.65;;;;;;;13.07;65.61;98272.63;5013054;27;102662;-78
2022/05/29 06:04:46;;;;;;;3.63;1.85;;;;;;;12.90;67.78;98273.22;4996571;28;104441;-75
2022/05/29 06:07:18;;;;;;;2.97;1.40;;;;;;;13.11;66.34;98266.03;5005972;27;102598;-75
2022/05/29 06:09:50;;;;;;;3.95;1.85;;;;;;;12.11;69.46;98266.91;5007970;27;103151;-74
2022/05/29 06:12:19;;;;;;;3.42;1.77;;;;;;;11.86;72.03;98263.81;5010148;27;104619;-76
2022/05/29 06:14:48;;;;;;;3.75;1.80;;;;;;;11.93;70.84;98271.09;4990400;27;103911;-73
2022/05/29 06:17:16;;;;;;;3.33;1.73;;;;;;;12.51;70.34;98271.41;5005754;27;103129;-74
2022/05/29 06:19:44;;;;;;;4.20;1.70;;;;;;;12.14;70.99;98273.75;5001063;27;102859;-72
2022/05/29 06:22:12;;;;;;;2.90;1.70;;;;;;;12.29;70.64;98271.59;5001445;27;104010;-76
2022/05/29 06:24:41;;;;;;;2.70;1.85;;;;;;;12.54;67.40;98276.47;4999637;28;104045;-74
2022/05/29 06:27:12;;;;;;;3.90;2.27;;;;;;;12.78;67.88;98274.31;5002218;27;103147;-74
2022/05/29 06:29:40;;;;;;;4.95;2.20;;;;;;;13.33;68.45;98279.06;5001548;27;102694;-75
2022/05/29 06:32:12;;;;;;;3.90;1.83;;;;;;;13.46;66.27;98277.97;4988129;27;103652;-75
2022/05/29 06:34:40;;;;;;;4.03;1.80;;;;;;;13.83;66.80;98278.94;5002248;27;104032;-75
2022/05/29 06:37:08;;;;;;;3.58;1.50;;;;;;;13.06;65.46;98273.53;5008317;27;103334;-75
2022/05/29 06:39:37;;;;;;;3.92;1.50;;;;;;;13.26;66.88;98267.34;5005442;27;102655;-75
2022/05/29 06:42:07;;;;;;;2.75;1.77;;;;;;;12.85;63.51;98275.47;5008251;27;103960;-75
2022/05/29 06:44:37;;;;;;;3.47;1.52;;;;;;;13.09;62.24;98273.31;5002730;27;103237;-75
2022/05/29 06:47:07;;;;;;;3.20;1.60;;;;;;;13.29;63.53;98268.88;4992920;28;104170;-76
2022/05/29 06:49:35;;;;;;;3.55;1.77;;;;;;;13.28;63.77;98267.19;5000745;27;102676;-75
2022/05/29 06:52:06;;;;;;;3.65;1.75;;;;;;;13.20;63.24;98272.34;5000854;27;104049;-74
2022/05/29 06:54:34;;;;;;;2.72;1.60;;;;;;;13.31;63.59;98278.38;5004525;27;104175;-75
2022/05/29 06:57:02;;;;;;;3.20;1.60;;;;;;;13.42;63.53;98273.94;5001227;27;103216;-75
2022/05/29 06:59:32;;;;;;;4.10;1.70;;;;;;;13.70;62.57;98267.75;5003838;27;103024;-75
2022/05/29 07:07:44;;;;;;;4.63;1.88;;;;;;;13.87;60.10;98281.16;4985731;27;103184;-75
2022/05/29 07:10:12;;;;;;;4.70;1.65;;;;;;;13.31;62.82;98285.47;5005423;27;104392;-75
2022/05/29 07:12:45;;;;;;;4.43;2.00;;;;;;;13.43;63.54;98291.50;5003906;27;102770;-75
2022/05/29 07:15:16;;;;;;;3.20;1.70;;;;;;;13.44;63.59;98283.41;5004760;27;103346;-72
2022/05/29 07:17:44;;;;;;;5.75;2.22;;;;;;;13.09;65.07;98294.53;5003104;27;103184;-75
2022/05/29 07:20:13;;;;;;;4.05;1.70;;;;;;;13.26;63.47;98285.06;5014395;27;107935;-74
2022/05/29 07:22:42;;;;;;;4.75;1.80;;;;;;;13.15;63.98;98293.97;5006009;27;103991;-74
2022/05/29 07:25:11;;;;;;;3.05;1.63;;;;;;;13.37;63.74;98292.91;5014653;27;104893;-74
2022/05/29 07:27:39;;;;;;;5.65;2.03;;;;;;;13.29;64.44;98293.59;5009467;27;103265;-75
2022/05/29 07:30:09;;;;;;;4.97;1.95;;;;;;;13.44;64.14;98298.50;5014050;27;102787;-75
2022/05/29 07:32:38;;;;;;;4.32;1.60;;;;;;;12.81;63.94;98295.25;5011316;28;102619;-75
2022/05/29 07:35:06;;;;;;;3.85;1.55;;;;;;;12.78;63.74;98300.81;5006451;27;104116;-75
2022/05/29 07:37:34;;;;;;;4.97;1.73;;;;;;;13.37;63.40;98292.91;4984103;28;103179;-75
2022/05/29 07:40:03;;;;;;;3.00;1.60;;;;;;;13.80;62.46;98303.13;4998163;27;103061;-76
2022/05/29 07:45:17;;;;;;;3.33;1.40;;;;;;;15.41;56.88;98297.38;5009436;27;104152;-75
2022/05/29 07:47:46;;;;;;;4.17;2.13;;;;;;;14.24;62.97;98299.84;5002990;27;103412;-74
2022/05/29 07:50:18;;;;;;;4.03;1.92;;;;;;;14.39;61.88;98306.41;5005840;27;102759;-75
2022/05/29 07:52:46;;;;;;;5.75;2.13;;;;;;;14.90;61.85;98303.31;5002360;27;103563;-74
2022/05/29 07:55:14;;;;;;;3.53;1.70;;;;;;;14.67;61.42;98311.78;4986525;27;104083;-75
2022/05/29 07:57:42;;;;;;;4.90;1.90;;;;;;;14.22;59.79;98315.09;5003250;27;102766;-75
2022/05/29 08:00:15;;;;;;;4.93;1.97;;;;;;;14.57;61.32;98316.31;5008152;27;103551;-75
2022/05/29 08:02:44;;;;;;;3.83;1.85;;;;;;;14.48;60.62;98318.81;5011608;27;104295;-74
2022/05/29 08:05:17;;;;;;;4.68;1.70;;;;;;;14.52;60.46;98317.56;5003755;27;103957;-75
2022/05/29 08:07:47;;;;;;;4.30;1.90;;;;;;;13.87;63.05;98318.34;5009538;27;102958;-75
2022/05/29 08:10:16;;;;;;;5.20;1.95;;;;;;;14.34;62.09;98327.25;5002260;27;102803;-74
2022/05/29 08:12:44;;;;;;;4.43;2.13;;;;;;;14.38;60.39;98326.00;5011466;27;104032;-75
2022/05/29 08:15:13;;;;;;;3.70;1.97;;;;;;;15.07;60.59;98314.97;4993180;27;104230;-75
2022/05/29 08:17:41;;;;;;;3.30;1.95;;;;;;;15.01;57.35;98334.19;5002220;27;103221;-75
2022/05/29 08:20:15;;;;;;;4.57;1.90;;;;;;;15.83;57.33;98312.81;5007980;27;103154;-75
2022/05/29 08:22:43;;;;;;;7.17;2.17;;;;;;;15.05;57.27;98311.59;5014274;27;103845;-75
2022/05/29 08:30:51;;;;;;;3.67;1.83;;;;;;;15.63;56.08;98307.59;5003677;27;102700;-75
2022/05/29 08:33:26;;;;;;;3.63;1.67;;;;;;;14.77;57.13;98312.56;5000540;27;103135;-75
2022/05/29 08:36:00;;;;;;;4.65;1.88;;;;;;;15.63;55.86;98301.47;5003121;27;103242;-72
2022/05/29 08:38:29;;;;;;;4.22;1.60;;;;;;;15.65;54.91;98300.31;4984730;27;103197;-72
2022/05/29 08:41:02;;;;;;;5.05;1.60;;;;;;;15.36;56.06;98307.63;5008645;27;102728;-72
2022/05/29 08:43:35;;;;;;;5.50;1.85;;;;;;;15.20;56.87;98310.13;5000361;27;103836;-72
2022/05/29 08:46:08;;;;;;;4.45;1.60;;;;;;;15.34;56.18;98308.78;5002696;27;103274;-73
2022/05/29 08:48:36;;;;;;;3.28;1.80;;;;;;;14.96;56.68;98305.34;5005839;27;103179;-72
2022/05/29 08:51:21;;;;;;;6.13;2.10;;;;;;;14.77;56.71;98317.88;5005267;27;102661;-73
2022/05/29 08:53:57;;;;;;;2.97;1.73;;;;;;;14.64;57.42;98320.88;5003929;27;103851;-72
2022/05/29 08:56:33;;;;;;;4.07;1.63;;;;;;;15.09;56.78;98307.66;5003136;27;103856;-72
2022/05/29 08:59:10;;;;;;;4.87;2.00;;;;;;;14.79;58.19;98321.25;5010058;27;103468;-72
2022/05/29 09:01:52;;;;;;;4.53;1.87;;;;;;;14.83;57.08;98314.66;4989539;27;103064;-72
2022/05/29 09:04:29;;;;;;;3.90;1.73;;;;;;;14.51;58.23;98313.22;4988956;27;103126;-72
2022/05/29 09:07:01;;;;;;;5.35;1.98;;;;;;;14.05;59.94;98313.16;4987774;28;104337;-72
2022/05/29 09:09:34;;;;;;;5.03;1.80;;;;;;;14.25;59.96;98316.63;5009349;27;103164;-72
2022/05/29 09:12:05;;;;;;;5.20;2.10;;;;;;;14.28;60.17;98317.19;5003814;27;103246;-72
2022/05/29 09:14:42;;;;;;;5.33;2.07;;;;;;;14.14;62.26;98314.97;5004607;27;103042;-71
2022/05/29 09:17:13;;;;;;;4.95;1.83;;;;;;;14.05;61.94;98307.84;5006808;27;103784;-71
2022/05/29 09:19:48;;;;;;;6.23;2.70;;;;;;;14.21;60.94;98304.59;5006586;27;103535;-72
2022/05/29 09:22:23;;;;;;;6.03;1.80;;;;;;;14.69;60.30;98301.84;4992066;27;102804;-71
2022/05/29 09:24:58;;;;;;;5.55;2.05;;;;;;;15.06;59.64;98307.97;5007131;27;103800;-71
2022/05/29 09:27:26;;;;;;;4.53;2.07;;;;;;;14.93;57.83;98302.16;5005095;27;104107;-72
2022/05/29 09:29:54;;;;;;;4.10;1.87;;;;;;;14.35;58.44;98301.50;4990050;27;104299;-71
2022/05/29 09:32:25;;;;;;;6.25;2.17;;;;;;;14.60;60.03;98302.69;5008114;27;102644;-71
2022/05/29 09:35:01;;;;;;;5.78;1.92;;;;;;;14.50;61.22;98303.59;5006111;27;102807;-71
2022/05/29 09:37:40;;;;;;;5.53;1.88;;;;;;;14.28;61.07;98305.72;5002387;27;104051;-71
2022/05/29 09:40:13;;;;;;;4.37;1.87;;;;;;;15.07;58.51;98304.34;5003543;27;103225;-71
2022/05/29 09:42:43;;;;;;;3.60;1.85;;;;;;;14.59;57.91;98301.88;5004854;27;102675;-71
2022/05/29 09:45:15;;;;;;;4.82;2.00;;;;;;;14.38;59.61;98296.75;4987629;28;104349;-70
2022/05/29 09:50:44;;;;;;;4.85;2.15;;;;;;;14.67;60.55;98309.13;5004094;27;103229;-71
2022/05/29 09:53:17;;;;;;;5.47;2.17;;;;;;;14.66;59.56;98310.09;5002673;27;103065;-71
2022/05/29 09:55:51;;;;;;;5.20;2.28;;;;;;;14.78;59.09;98311.59;5007673;27;102745;-72
2022/05/29 09:58:25;;;;;;;4.35;2.00;;;;;;;15.00;59.20;98308.56;4998067;27;104303;-71
2022/05/29 10:00:55;;;;;;;4.53;2.08;;;;;;;15.01;59.04;98305.75;5000705;27;102987;-72
2022/05/29 10:03:51;;;;;;;5.07;2.00;;;;;;;15.30;58.05;98304.75;5009758;27;102893;-71
2022/05/29 10:06:29;;;;;;;6.00;2.20;;;;;;;15.33;58.64;98315.06;4992413;27;104856;-71
2022/05/29 10:09:16;;;;;;;3.58;1.88;;;;;;;15.21;56.51;98318.94;5001762;27;103317;-72
2022/05/29 10:11:46;;;;;;;11.80;7.60;;;;;;;16.31;55.85;98307.84;4998202;27;103659;-72
2022/05/29 10:14:34;;;;;;;4.07;1.87;;;;;;;16.55;53.74;98294.72;4982388;27;103306;-73
2022/05/29 10:17:07;;;;;;;5.13;1.85;;;;;;;16.50;54.42;98298.81;5002051;27;103833;-72
2022/05/29 10:19:37;;;;;;;3.70;1.73;;;;;;;17.45;53.80;98294.09;5004298;27;104130;-74
2022/05/29 10:22:13;;;;;;;5.13;1.55;;;;;;;15.96;53.55;98303.44;4989106;27;104231;-74
2022/05/29 10:24:43;;;;;;;4.13;1.80;;;;;;;15.48;55.27;98293.16;5004198;27;102663;-73
2022/05/29 10:27:22;;;;;;;4.03;1.73;;;;;;;15.89;55.18;98313.00;5001987;27;104520;-74
2022/05/29 10:29:55;;;;;;;2.95;1.42;;;;;;;15.72;55.96;98300.53;5003402;27;103233;-74
2022/05/29 10:32:26;;;;;;;4.50;1.73;;;;;;;16.46;54.21;98300.13;5007818;27;103173;-72
2022/05/29 10:35:16;;;;;;;4.03;1.85;;;;;;;16.99;53.37;98297.25;5002859;27;104468;-73
2022/05/29 10:37:46;;;;;;;7.20;2.30;;;;;;;15.73;54.48;98306.72;5005152;27;104185;-74
2022/05/29 10:40:25;;;;;;;3.40;1.50;;;;;;;16.61;53.64;98299.44;4987032;28;104442;-73
2022/05/29 10:42:55;;;;;;;2.97;1.73;;;;;;;16.33;53.22;98300.56;5004887;27;103185;-74
2022/05/29 10:45:26;;;;;;;4.87;1.80;;;;;;;16.35;52.78;98303.88;5007018;27;103175;-74
2022/05/29 10:48:33;;;;;;;4.40;1.95;;;;;;;16.21;56.66;98297.31;5003684;27;104076;-74
2022/05/29 10:51:19;;;;;;;4.00;1.97;;;;;;;16.71;56.04;98305.47;4983570;27;105009;-74
2022/05/29 10:54:03;;;;;;;3.45;1.80;;;;;;;16.16;55.79;98302.25;5001324;27;103251;-74
2022/05/29 10:56:41;;;;;;;3.80;1.90;;;;;;;16.44;54.96;98302.13;4992692;27;103530;-74
2022/05/29 10:59:36;;;;;;;6.85;2.30;;;;;;;16.51;56.82;98309.31;4972087;27;103101;-74
2022/05/29 11:05:21;;;;;;;3.63;1.90;;;;;;;16.32;55.89;98309.53;4997379;27;103308;-75
2022/05/29 11:08:06;;;;;;;4.87;1.70;;;;;;;16.33;55.16;98311.22;4998284;27;102979;-75
2022/05/29 11:10:54;;;;;;;4.03;1.70;;;;;;;16.00;56.28;98311.97;4988889;27;103691;-75
2022/05/29 11:13:41;;;;;;;3.67;1.55;;;;;;;16.34;56.11;98315.53;4982276;28;104413;-73
2022/05/29 11:16:17;;;;;;;4.13;1.90;;;;;;;15.35;56.73;98310.47;4983215;27;104108;-73
2022/05/29 11:19:02;;;;;;;3.80;1.70;;;;;;;15.81;57.29;98312.09;5002249;27;102706;-74
2022/05/29 11:21:41;;;;;;;3.70;1.50;;;;;;;16.21;54.48;98307.13;4997202;27;102735;-74
2022/05/29 11:24:39;;;;;;;3.65;1.65;;;;;;;15.74;55.00;98305.72;5002928;27;103023;-74
2022/05/29 11:27:27;;;;;;;4.00;1.80;;;;;;;15.55;55.41;98310.19;4986786;27;103226;-74
2022/05/29 11:30:05;;;;;;;3.43;1.33;;;;;;;16.28;53.27;98308.16;5006900;27;102688;-75
2022/05/29 11:33:06;;;;;;;2.05;1.10;;;;;;;16.52;51.55;98310.16;4987205;27;102821;-75
2022/05/29 11:35:54;;;;;;;3.47;1.50;;;;;;;14.95;54.31;98305.50;5007003;27;104632;-74
2022/05/29 11:38:41;;;;;;;2.53;1.60;;;;;;;14.07;57.29;98318.31;5000550;27;103508;-73
2022/05/29 11:41:14;;;;;;;2.37;1.43;;;;;;;14.89;55.27;98306.09;5004711;27;102993;-73
2022/05/29 11:43:50;;;;;;;2.20;1.33;;;;;;;14.93;55.23;98302.16;4987684;27;102674;-73
2022/05/29 11:52:10;;;;;;;3.37;1.53;;;;;;;14.84;54.25;98297.72;4987910;27;105153;-72
2022/05/29 11:54:44;;;;;;;2.95;1.50;;;;;;;15.45;52.60;98293.44;4987500;27;104461;-76
2022/05/29 11:57:17;;;;;;;1.95;1.20;;;;;;;15.52;53.50;98288.38;4984802;27;103515;-76
2022/05/29 11:59:51;;;;;;;3.33;1.50;;;;;;;16.07;53.41;98284.53;4986866;27;103132;-75
2022/05/29 12:02:29;;;;;;;4.72;1.40;;;;;;;16.01;54.17;98279.81;5009171;27;103468;-73
2022/05/29 12:05:03;;;;;;;4.28;1.55;;;;;;;14.92;55.17;98281.84;4984199;28;104040;-73
2022/05/29 12:07:38;;;;;;;5.27;1.90;;;;;;;14.29;62.11;98284.31;4998904;27;103911;-73
2022/05/29 12:10:13;;;;;;;4.90;1.70;;;;;;;14.58;59.58;98283.41;5003856;27;103323;-74
2022/05/29 12:12:45;;;;;;;3.08;1.80;;;;;;;15.73;57.63;98280.06;4999198;27;102709;-74
2022/05/29 12:15:18;;;;;;;5.03;2.17;;;;;;;14.35;64.70;98290.88;4995861;27;103533;-74
2022/05/29 12:17:53;;;;;;;3.85;1.70;;;;;;;15.47;64.91;98283.50;5001620;27;103225;-71
2022/05/29 12:20:29;;;;;;;3.15;1.52;;;;;;;17.02;60.09;98275.59;5004721;27;103370;-71
2022/05/29 12:23:02;;;;;;;3.10;1.70;;;;;;;17.38;58.57;98280.53;4984115;27;103614;-72
2022/05/29 12:25:36;;;;;;;3.93;1.80;;;;;;;18.13;57.35;98277.81;5008649;27;102702;-71